LIRN/NAP METAR and TAF weather

Enter ICAO airport designator
Station Type Date Time Source
LIRN METAR 2019/04/25 02:20 UTC NOAA

LIRN 250220Z 06003KT CAVOK 16/10 Q1017 NOSIG


Station Type Date Time Source
LIRN Decoded METAR 2019/04/25 02:20 UTC NOAA

Napoli / Capodichino, Italy (LIRN) 40-51N 014-18E 72M
Apr 24, 2019 - 10:20 PM EDT / 2019.04.25 0220 UTC
Wind: from the ENE (060 degrees) at 3 MPH (3 KT):0
Visibility: greater than 7 mile(s):0
Temperature: 60 F (16 C)
Dew Point: 50 F (10 C)
Relative Humidity: 67%
Pressure (altimeter): 30.03 in. Hg (1017 hPa)
ob: LIRN 250220Z 06003KT CAVOK 16/10 Q1017 NOSIG
cycle: 2

Station Type Date Time Source
LIRN TAF 2019/04/24 18:21 UTC NOAA

TAF LIRN 241700Z 2418/2518 VRB05KT CAVOK
BECMG 2509/2511 20010KT

Example: see airport list